Pagina principale
METAR-TAF:

METAR-TAF

Aeroporti :

Aeroporto di Venezia-Tessera

Venezia, Italia

latitudine: 45-30N, longitudine: 012-20E, altezza: 2 m

Osservazione

Il bollettino è stato emesso 16 minuti fa, alle 02:50 UTC
Vento 2 kt da nord
Temperature 5°C
Umidità 75%
Pressione 1025 hPa
Visibilità: 7000 m
Nuvoloso ad un'altezza di 2400 ft

METAR: LIPZ 250250Z 01002KT 7000 BKN024 05/01 Q1025 NOSIG

Ora: 04:06 (03:06 UTC)

Previsione

Il bollettino è stato emesso 4 ore e 6 minuti fa, alle 23:00 UTC
Previsione valida dal 25 alle 00 UTC al 26 alle 06 UTC
Vento 7 kt da nord-est
Visibilità: 6000 m
Nubi sparse ad un'altezza di 4000 ft
Temporaneamente
dal 25 alle 00 UTC al 25 alle 06 UTC
Visibilità: 3000 m
pioggia
Temporaneamente
dal 26 alle 00 UTC al 26 alle 06 UTC
Visibilità: 3000 m
pioggia

TAF: LIPZ 242300Z 2500/2606 04007KT 6000 SCT040 TEMPO 2500/2506 3000 RA TEMPO 2600/2606 3000 RA

Osservazioni e previsioni meteorologiche di più di 4000 aeroporti (messaggi METAR e TAF).

Le stazioni disponibili sono rappresentate dai dischi gialli e rossi sulla carta.

Puntare il mouse per vedere il nome della stazione.

Clicca sopra per visualizzare le osservazioni e previsioni meteorologiche.

Per cambiare la mappa : fare clic sui pulsanti verdi con una croce nera per ingrandire, il pulsante verde con un trattino per diminuire, o sulla freccia verde per le mappe adiacenti.


METAR-TAF: